Terminal Aerodrome Forecast
Issued by NWS Blacksburg, VA

Current Version | Previous Version | Graphics & Text | Print | Product List | Glossary On
Versions: 1 2 3 4 5 6 7 8 9 10 11 12 13 14 15 16 17 18 19 20 21 22 23 24 25 26 27 28 29 30 31 32 33 34 35 36
000
FTUS41 KRNK 162327
TAFBLF
TAF
KBLF 162327Z 1700/1724 29013G23KT P6SM VCSH SCT025 OVC035
      TEMPO 1700/1703 -SHRA OVC025
     FM170400 29013G23KT P6SM SCT015 OVC025
     FM170900 29010G20KT P6SM OVC012
     FM171500 29013G23KT P6SM SCT012 OVC025
     FM172000 29010KT P6SM SCT025 SCT250=

USA.gov is the U.S. government's official web portal to all federal, state and local government web resources and services.